sensor_id;sensor_type;location;lat;lon;timestamp;P1;durP1;ratioP1;P2;durP2;ratioP2
32786;SDS011;19139;49.372;8.580;2023-03-21T00:00:38;3.20;;;2.20;;
32786;SDS011;19139;49.372;8.580;2023-03-21T00:03:05;1.93;;;1.73;;
32786;SDS011;19139;49.372;8.580;2023-03-21T00:05:32;3.67;;;1.87;;
32786;SDS011;19139;49.372;8.580;2023-03-21T00:07:59;2.30;;;1.60;;
32786;SDS011;19139;49.372;8.580;2023-03-21T00:10:27;3.40;;;1.60;;
32786;SDS011;19139;49.372;8.580;2023-03-21T00:13:08;2.23;;;1.70;;
32786;SDS011;19139;49.372;8.580;2023-03-21T00:15:38;2.47;;;1.87;;
32786;SDS011;19139;49.372;8.580;2023-03-21T00:18:30;3.10;;;2.03;;
32786;SDS011;19139;49.372;8.580;2023-03-21T00:20:58;3.80;;;1.97;;
32786;SDS011;19139;49.372;8.580;2023-03-21T00:23:46;2.10;;;1.63;;
32786;SDS011;19139;49.372;8.580;2023-03-21T00:26:13;3.23;;;1.90;;
32786;SDS011;19139;49.372;8.580;2023-03-21T00:28:41;2.07;;;1.60;;
32786;SDS011;19139;49.372;8.580;2023-03-21T00:31:08;2.03;;;1.60;;
32786;SDS011;19139;49.372;8.580;2023-03-21T00:33:35;1.80;;;1.50;;
32786;SDS011;19139;49.372;8.580;2023-03-21T00:36:04;2.90;;;1.73;;
32786;SDS011;19139;49.372;8.580;2023-03-21T00:38:32;2.73;;;2.27;;
32786;SDS011;19139;49.372;8.580;2023-03-21T00:41:02;3.10;;;1.87;;
32786;SDS011;19139;49.372;8.580;2023-03-21T00:43:46;2.17;;;1.93;;
32786;SDS011;19139;49.372;8.580;2023-03-21T00:46:14;2.43;;;1.83;;
32786;SDS011;19139;49.372;8.580;2023-03-21T00:48:41;2.90;;;1.70;;
32786;SDS011;19139;49.372;8.580;2023-03-21T00:51:16;2.93;;;1.70;;
32786;SDS011;19139;49.372;8.580;2023-03-21T00:53:54;2.77;;;1.67;;
32786;SDS011;19139;49.372;8.580;2023-03-21T00:56:23;2.17;;;1.97;;
32786;SDS011;19139;49.372;8.580;2023-03-21T00:58:50;2.63;;;1.80;;
32786;SDS011;19139;49.372;8.580;2023-03-21T01:01:17;2.20;;;1.80;;
32786;SDS011;19139;49.372;8.580;2023-03-21T01:03:44;3.03;;;2.17;;
32786;SDS011;19139;49.372;8.580;2023-03-21T01:06:13;2.70;;;1.47;;
32786;SDS011;19139;49.372;8.580;2023-03-21T01:08:44;2.53;;;1.90;;
32786;SDS011;19139;49.372;8.580;2023-03-21T01:11:19;1.67;;;1.43;;
32786;SDS011;19139;49.372;8.580;2023-03-21T01:13:48;1.67;;;1.43;;
32786;SDS011;19139;49.372;8.580;2023-03-21T01:16:26;2.60;;;2.00;;
32786;SDS011;19139;49.372;8.580;2023-03-21T01:18:54;2.67;;;1.70;;
32786;SDS011;19139;49.372;8.580;2023-03-21T01:21:21;2.37;;;1.33;;
32786;SDS011;19139;49.372;8.580;2023-03-21T01:23:48;2.23;;;1.40;;
32786;SDS011;19139;49.372;8.580;2023-03-21T01:26:15;2.63;;;1.53;;
32786;SDS011;19139;49.372;8.580;2023-03-21T01:28:45;2.20;;;1.77;;
32786;SDS011;19139;49.372;8.580;2023-03-21T01:31:13;2.80;;;1.87;;
32786;SDS011;19139;49.372;8.580;2023-03-21T01:33:42;2.37;;;1.50;;
32786;SDS011;19139;49.372;8.580;2023-03-21T01:36:14;2.30;;;1.43;;
32786;SDS011;19139;49.372;8.580;2023-03-21T01:38:49;2.57;;;2.00;;
32786;SDS011;19139;49.372;8.580;2023-03-21T01:41:23;3.67;;;2.10;;
32786;SDS011;19139;49.372;8.580;2023-03-21T01:44:16;2.67;;;1.50;;
32786;SDS011;19139;49.372;8.580;2023-03-21T01:46:45;2.30;;;1.60;;
32786;SDS011;19139;49.372;8.580;2023-03-21T01:49:33;2.00;;;1.53;;
32786;SDS011;19139;49.372;8.580;2023-03-21T01:52:04;2.10;;;1.50;;
32786;SDS011;19139;49.372;8.580;2023-03-21T01:54:42;2.63;;;2.00;;
32786;SDS011;19139;49.372;8.580;2023-03-21T01:57:15;2.03;;;1.40;;
32786;SDS011;19139;49.372;8.580;2023-03-21T01:59:47;2.17;;;1.47;;
32786;SDS011;19139;49.372;8.580;2023-03-21T02:02:20;1.93;;;1.60;;
32786;SDS011;19139;49.372;8.580;2023-03-21T02:04:51;2.27;;;1.77;;
32786;SDS011;19139;49.372;8.580;2023-03-21T02:07:26;2.43;;;1.93;;
32786;SDS011;19139;49.372;8.580;2023-03-21T02:09:55;2.60;;;2.00;;
32786;SDS011;19139;49.372;8.580;2023-03-21T02:12:24;2.30;;;1.67;;
32786;SDS011;19139;49.372;8.580;2023-03-21T02:14:52;1.67;;;1.53;;
32786;SDS011;19139;49.372;8.580;2023-03-21T02:23:32;2.60;;;1.63;;
32786;SDS011;19139;49.372;8.580;2023-03-21T02:32:02;1.67;;;1.40;;
32786;SDS011;19139;49.372;8.580;2023-03-21T02:38:19;1.77;;;1.50;;
32786;SDS011;19139;49.372;8.580;2023-03-21T02:41:05;2.03;;;1.40;;
32786;SDS011;19139;49.372;8.580;2023-03-21T02:43:46;2.90;;;2.17;;
32786;SDS011;19139;49.372;8.580;2023-03-21T02:49:16;1.67;;;1.37;;
32786;SDS011;19139;49.372;8.580;2023-03-21T02:51:56;1.87;;;1.40;;
32786;SDS011;19139;49.372;8.580;2023-03-21T02:54:39;1.83;;;1.40;;
32786;SDS011;19139;49.372;8.580;2023-03-21T02:57:15;2.20;;;1.50;;
32786;SDS011;19139;49.372;8.580;2023-03-21T02:59:45;1.50;;;1.07;;
32786;SDS011;19139;49.372;8.580;2023-03-21T03:02:24;1.67;;;1.40;;
32786;SDS011;19139;49.372;8.580;2023-03-21T03:04:53;2.13;;;1.50;;
32786;SDS011;19139;49.372;8.580;2023-03-21T03:10:21;3.13;;;1.77;;
32786;SDS011;19139;49.372;8.580;2023-03-21T03:18:51;2.73;;;1.60;;
32786;SDS011;19139;49.372;8.580;2023-03-21T03:21:28;2.40;;;1.47;;
32786;SDS011;19139;49.372;8.580;2023-03-21T03:24:05;1.53;;;1.30;;
32786;SDS011;19139;49.372;8.580;2023-03-21T03:26:40;2.13;;;1.43;;
32786;SDS011;19139;49.372;8.580;2023-03-21T03:29:16;2.27;;;1.63;;
32786;SDS011;19139;49.372;8.580;2023-03-21T03:31:54;2.03;;;1.30;;
32786;SDS011;19139;49.372;8.580;2023-03-21T03:34:28;2.17;;;1.80;;
32786;SDS011;19139;49.372;8.580;2023-03-21T03:37:00;1.97;;;1.77;;
32786;SDS011;19139;49.372;8.580;2023-03-21T03:39:32;2.40;;;1.57;;
32786;SDS011;19139;49.372;8.580;2023-03-21T03:42:06;2.00;;;1.73;;
32786;SDS011;19139;49.372;8.580;2023-03-21T03:44:53;3.00;;;1.80;;
32786;SDS011;19139;49.372;8.580;2023-03-21T03:47:26;2.07;;;1.43;;
32786;SDS011;19139;49.372;8.580;2023-03-21T03:50:41;1.67;;;1.37;;
32786;SDS011;19139;49.372;8.580;2023-03-21T03:53:29;1.97;;;1.57;;
32786;SDS011;19139;49.372;8.580;2023-03-21T03:56:03;1.93;;;1.27;;
32786;SDS011;19139;49.372;8.580;2023-03-21T03:58:33;2.50;;;1.80;;
32786;SDS011;19139;49.372;8.580;2023-03-21T04:01:11;1.57;;;1.30;;
32786;SDS011;19139;49.372;8.580;2023-03-21T04:03:38;1.50;;;1.30;;
32786;SDS011;19139;49.372;8.580;2023-03-21T04:06:15;2.43;;;1.60;;
32786;SDS011;19139;49.372;8.580;2023-03-21T04:08:43;2.20;;;1.60;;
32786;SDS011;19139;49.372;8.580;2023-03-21T04:11:11;2.67;;;1.57;;
32786;SDS011;19139;49.372;8.580;2023-03-21T04:13:41;1.67;;;1.53;;
32786;SDS011;19139;49.372;8.580;2023-03-21T04:16:08;2.00;;;1.40;;
32786;SDS011;19139;49.372;8.580;2023-03-21T04:18:37;1.93;;;1.40;;
32786;SDS011;19139;49.372;8.580;2023-03-21T04:21:09;1.33;;;1.10;;
32786;SDS011;19139;49.372;8.580;2023-03-21T04:23:38;1.77;;;1.57;;
32786;SDS011;19139;49.372;8.580;2023-03-21T04:26:06;2.10;;;1.23;;
32786;SDS011;19139;49.372;8.580;2023-03-21T04:28:33;1.97;;;1.47;;
32786;SDS011;19139;49.372;8.580;2023-03-21T04:31:03;3.00;;;1.47;;
32786;SDS011;19139;49.372;8.580;2023-03-21T04:33:44;2.03;;;1.40;;
32786;SDS011;19139;49.372;8.580;2023-03-21T04:36:12;2.37;;;1.40;;
32786;SDS011;19139;49.372;8.580;2023-03-21T04:38:50;2.53;;;1.50;;
32786;SDS011;19139;49.372;8.580;2023-03-21T04:41:17;2.40;;;1.47;;
32786;SDS011;19139;49.372;8.580;2023-03-21T04:43:44;1.40;;;1.10;;
32786;SDS011;19139;49.372;8.580;2023-03-21T04:46:12;1.87;;;1.60;;
32786;SDS011;19139;49.372;8.580;2023-03-21T04:48:39;2.43;;;1.70;;
32786;SDS011;19139;49.372;8.580;2023-03-21T04:51:06;1.70;;;1.60;;
32786;SDS011;19139;49.372;8.580;2023-03-21T04:53:32;2.33;;;1.50;;
32786;SDS011;19139;49.372;8.580;2023-03-21T04:55:59;2.87;;;1.30;;
32786;SDS011;19139;49.372;8.580;2023-03-21T04:58:26;1.50;;;1.27;;
32786;SDS011;19139;49.372;8.580;2023-03-21T05:00:53;2.23;;;1.27;;
32786;SDS011;19139;49.372;8.580;2023-03-21T05:03:19;1.93;;;1.40;;
32786;SDS011;19139;49.372;8.580;2023-03-21T05:05:47;1.73;;;1.33;;
32786;SDS011;19139;49.372;8.580;2023-03-21T05:08:14;2.30;;;1.70;;
32786;SDS011;19139;49.372;8.580;2023-03-21T05:10:41;1.83;;;1.43;;
32786;SDS011;19139;49.372;8.580;2023-03-21T05:13:08;1.83;;;1.30;;
32786;SDS011;19139;49.372;8.580;2023-03-21T05:15:35;1.63;;;1.20;;
32786;SDS011;19139;49.372;8.580;2023-03-21T05:18:02;2.43;;;1.73;;
32786;SDS011;19139;49.372;8.580;2023-03-21T05:20:37;1.47;;;1.30;;
32786;SDS011;19139;49.372;8.580;2023-03-21T05:23:10;1.33;;;1.13;;
32786;SDS011;19139;49.372;8.580;2023-03-21T05:25:38;1.77;;;1.37;;
32786;SDS011;19139;49.372;8.580;2023-03-21T05:28:06;1.97;;;1.50;;
32786;SDS011;19139;49.372;8.580;2023-03-21T05:30:33;2.10;;;1.63;;
32786;SDS011;19139;49.372;8.580;2023-03-21T05:33:00;1.90;;;1.20;;
32786;SDS011;19139;49.372;8.580;2023-03-21T05:35:26;2.93;;;1.60;;
32786;SDS011;19139;49.372;8.580;2023-03-21T05:37:53;1.30;;;1.20;;
32786;SDS011;19139;49.372;8.580;2023-03-21T05:40:20;2.17;;;1.50;;
32786;SDS011;19139;49.372;8.580;2023-03-21T05:42:47;1.77;;;1.50;;
32786;SDS011;19139;49.372;8.580;2023-03-21T05:45:14;1.80;;;1.47;;
32786;SDS011;19139;49.372;8.580;2023-03-21T05:47:41;1.73;;;1.40;;
32786;SDS011;19139;49.372;8.580;2023-03-21T05:50:08;2.43;;;1.70;;
32786;SDS011;19139;49.372;8.580;2023-03-21T05:52:36;1.33;;;1.10;;
32786;SDS011;19139;49.372;8.580;2023-03-21T05:55:03;1.93;;;1.50;;
32786;SDS011;19139;49.372;8.580;2023-03-21T05:57:30;1.67;;;1.27;;
32786;SDS011;19139;49.372;8.580;2023-03-21T06:00:00;2.10;;;1.30;;
32786;SDS011;19139;49.372;8.580;2023-03-21T06:02:27;1.87;;;1.40;;
32786;SDS011;19139;49.372;8.580;2023-03-21T06:04:53;1.73;;;1.57;;
32786;SDS011;19139;49.372;8.580;2023-03-21T06:07:21;1.93;;;1.60;;
32786;SDS011;19139;49.372;8.580;2023-03-21T06:09:48;1.73;;;1.47;;
32786;SDS011;19139;49.372;8.580;2023-03-21T06:12:15;1.40;;;1.27;;
32786;SDS011;19139;49.372;8.580;2023-03-21T06:14:42;1.77;;;1.63;;
32786;SDS011;19139;49.372;8.580;2023-03-21T06:17:08;2.17;;;1.97;;
32786;SDS011;19139;49.372;8.580;2023-03-21T06:19:35;2.13;;;1.80;;
32786;SDS011;19139;49.372;8.580;2023-03-21T06:22:02;2.70;;;1.43;;
32786;SDS011;19139;49.372;8.580;2023-03-21T06:24:28;1.83;;;1.40;;
32786;SDS011;19139;49.372;8.580;2023-03-21T06:26:55;1.53;;;1.33;;
32786;SDS011;19139;49.372;8.580;2023-03-21T06:29:22;1.97;;;1.60;;
32786;SDS011;19139;49.372;8.580;2023-03-21T06:31:49;1.70;;;1.40;;
32786;SDS011;19139;49.372;8.580;2023-03-21T06:34:16;1.80;;;1.60;;
32786;SDS011;19139;49.372;8.580;2023-03-21T06:36:42;2.07;;;1.40;;
32786;SDS011;19139;49.372;8.580;2023-03-21T06:39:09;2.00;;;1.30;;
32786;SDS011;19139;49.372;8.580;2023-03-21T06:41:36;2.07;;;1.80;;
32786;SDS011;19139;49.372;8.580;2023-03-21T06:44:09;3.10;;;1.90;;
32786;SDS011;19139;49.372;8.580;2023-03-21T06:46:36;3.97;;;2.67;;
32786;SDS011;19139;49.372;8.580;2023-03-21T06:49:03;3.50;;;2.73;;
32786;SDS011;19139;49.372;8.580;2023-03-21T06:51:29;5.27;;;3.20;;
32786;SDS011;19139;49.372;8.580;2023-03-21T06:53:56;4.80;;;3.57;;
32786;SDS011;19139;49.372;8.580;2023-03-21T06:56:23;4.03;;;3.23;;
32786;SDS011;19139;49.372;8.580;2023-03-21T06:58:49;5.80;;;3.37;;
32786;SDS011;19139;49.372;8.580;2023-03-21T07:01:16;5.27;;;3.30;;
32786;SDS011;19139;49.372;8.580;2023-03-21T07:03:43;4.93;;;3.73;;
32786;SDS011;19139;49.372;8.580;2023-03-21T07:06:10;4.33;;;3.50;;
32786;SDS011;19139;49.372;8.580;2023-03-21T07:08:37;4.87;;;4.20;;
32786;SDS011;19139;49.372;8.580;2023-03-21T07:11:05;5.37;;;4.40;;
32786;SDS011;19139;49.372;8.580;2023-03-21T07:13:33;4.60;;;4.10;;
32786;SDS011;19139;49.372;8.580;2023-03-21T07:15:59;4.90;;;4.10;;
32786;SDS011;19139;49.372;8.580;2023-03-21T07:18:26;4.87;;;4.30;;
32786;SDS011;19139;49.372;8.580;2023-03-21T07:20:53;5.00;;;4.60;;
32786;SDS011;19139;49.372;8.580;2023-03-21T07:23:20;11.53;;;5.07;;
32786;SDS011;19139;49.372;8.580;2023-03-21T07:25:50;5.80;;;4.60;;
32786;SDS011;19139;49.372;8.580;2023-03-21T07:28:18;6.90;;;4.90;;
32786;SDS011;19139;49.372;8.580;2023-03-21T07:30:50;6.27;;;4.33;;
32786;SDS011;19139;49.372;8.580;2023-03-21T07:33:19;6.20;;;4.67;;
32786;SDS011;19139;49.372;8.580;2023-03-21T07:35:45;7.90;;;4.90;;
32786;SDS011;19139;49.372;8.580;2023-03-21T07:38:12;9.37;;;5.90;;
32786;SDS011;19139;49.372;8.580;2023-03-21T07:40:42;5.97;;;4.83;;
32786;SDS011;19139;49.372;8.580;2023-03-21T07:43:09;4.97;;;4.20;;
32786;SDS011;19139;49.372;8.580;2023-03-21T07:45:36;5.53;;;4.70;;
32786;SDS011;19139;49.372;8.580;2023-03-21T07:48:03;5.03;;;4.10;;
32786;SDS011;19139;49.372;8.580;2023-03-21T07:50:30;7.53;;;4.73;;
32786;SDS011;19139;49.372;8.580;2023-03-21T07:52:56;7.23;;;4.97;;
32786;SDS011;19139;49.372;8.580;2023-03-21T07:55:23;6.37;;;5.63;;
32786;SDS011;19139;49.372;8.580;2023-03-21T07:57:50;8.17;;;4.93;;
32786;SDS011;19139;49.372;8.580;2023-03-21T08:00:17;5.43;;;4.43;;
32786;SDS011;19139;49.372;8.580;2023-03-21T08:02:49;7.87;;;5.03;;
32786;SDS011;19139;49.372;8.580;2023-03-21T08:05:24;6.97;;;5.00;;
32786;SDS011;19139;49.372;8.580;2023-03-21T08:07:56;7.43;;;5.00;;
32786;SDS011;19139;49.372;8.580;2023-03-21T08:10:22;6.37;;;4.73;;
32786;SDS011;19139;49.372;8.580;2023-03-21T08:12:49;7.53;;;5.53;;
32786;SDS011;19139;49.372;8.580;2023-03-21T08:15:16;6.00;;;5.00;;
32786;SDS011;19139;49.372;8.580;2023-03-21T08:17:43;5.67;;;4.57;;
32786;SDS011;19139;49.372;8.580;2023-03-21T08:20:14;6.80;;;4.80;;
32786;SDS011;19139;49.372;8.580;2023-03-21T08:22:42;6.40;;;4.67;;
32786;SDS011;19139;49.372;8.580;2023-03-21T08:25:10;6.37;;;4.03;;
32786;SDS011;19139;49.372;8.580;2023-03-21T08:27:43;5.77;;;4.27;;
32786;SDS011;19139;49.372;8.580;2023-03-21T08:30:12;5.37;;;4.53;;
32786;SDS011;19139;49.372;8.580;2023-03-21T08:32:41;4.17;;;3.73;;
32786;SDS011;19139;49.372;8.580;2023-03-21T08:35:09;4.53;;;3.60;;
32786;SDS011;19139;49.372;8.580;2023-03-21T08:37:40;5.60;;;3.57;;
32786;SDS011;19139;49.372;8.580;2023-03-21T08:40:12;3.93;;;3.20;;
32786;SDS011;19139;49.372;8.580;2023-03-21T08:42:41;4.37;;;3.97;;
32786;SDS011;19139;49.372;8.580;2023-03-21T08:45:09;3.30;;;3.00;;
32786;SDS011;19139;49.372;8.580;2023-03-21T08:47:36;4.43;;;3.17;;
32786;SDS011;19139;49.372;8.580;2023-03-21T08:50:04;3.97;;;2.93;;
32786;SDS011;19139;49.372;8.580;2023-03-21T08:52:32;3.37;;;3.07;;
32786;SDS011;19139;49.372;8.580;2023-03-21T08:54:59;3.67;;;3.30;;
32786;SDS011;19139;49.372;8.580;2023-03-21T08:57:27;6.03;;;3.47;;
32786;SDS011;19139;49.372;8.580;2023-03-21T08:59:54;4.27;;;2.87;;
32786;SDS011;19139;49.372;8.580;2023-03-21T09:02:22;3.60;;;3.17;;
32786;SDS011;19139;49.372;8.580;2023-03-21T09:04:48;5.63;;;3.33;;
32786;SDS011;19139;49.372;8.580;2023-03-21T09:07:18;4.63;;;3.10;;
32786;SDS011;19139;49.372;8.580;2023-03-21T09:09:45;3.50;;;3.20;;
32786;SDS011;19139;49.372;8.580;2023-03-21T09:12:23;3.73;;;2.47;;
32786;SDS011;19139;49.372;8.580;2023-03-21T09:14:49;3.63;;;2.60;;
32786;SDS011;19139;49.372;8.580;2023-03-21T09:17:18;4.60;;;2.90;;
32786;SDS011;19139;49.372;8.580;2023-03-21T09:19:46;3.70;;;2.93;;
32786;SDS011;19139;49.372;8.580;2023-03-21T09:22:14;4.47;;;2.60;;
32786;SDS011;19139;49.372;8.580;2023-03-21T09:24:43;3.73;;;2.60;;
32786;SDS011;19139;49.372;8.580;2023-03-21T09:27:17;3.10;;;2.73;;
32786;SDS011;19139;49.372;8.580;2023-03-21T09:29:48;3.23;;;2.83;;
32786;SDS011;19139;49.372;8.580;2023-03-21T09:32:15;2.90;;;2.50;;
32786;SDS011;19139;49.372;8.580;2023-03-21T09:34:43;3.03;;;2.73;;
32786;SDS011;19139;49.372;8.580;2023-03-21T09:37:11;4.30;;;2.87;;
32786;SDS011;19139;49.372;8.580;2023-03-21T09:39:43;3.30;;;2.50;;
32786;SDS011;19139;49.372;8.580;2023-03-21T09:42:24;3.20;;;2.63;;
32786;SDS011;19139;49.372;8.580;2023-03-21T09:45:21;4.30;;;2.60;;
32786;SDS011;19139;49.372;8.580;2023-03-21T09:48:34;3.33;;;2.67;;
32786;SDS011;19139;49.372;8.580;2023-03-21T09:51:26;3.30;;;2.40;;
32786;SDS011;19139;49.372;8.580;2023-03-21T09:53:58;3.33;;;2.50;;
32786;SDS011;19139;49.372;8.580;2023-03-21T09:56:33;4.30;;;2.77;;
32786;SDS011;19139;49.372;8.580;2023-03-21T09:59:01;3.50;;;2.30;;
32786;SDS011;19139;49.372;8.580;2023-03-21T10:01:32;2.80;;;2.33;;
32786;SDS011;19139;49.372;8.580;2023-03-21T10:04:07;2.80;;;2.57;;
32786;SDS011;19139;49.372;8.580;2023-03-21T10:06:38;3.93;;;2.40;;
32786;SDS011;19139;49.372;8.580;2023-03-21T10:09:13;3.17;;;2.70;;
32786;SDS011;19139;49.372;8.580;2023-03-21T10:11:49;2.93;;;2.70;;
32786;SDS011;19139;49.372;8.580;2023-03-21T10:14:30;3.37;;;2.20;;
32786;SDS011;19139;49.372;8.580;2023-03-21T10:16:59;3.17;;;2.60;;
32786;SDS011;19139;49.372;8.580;2023-03-21T10:19:35;2.97;;;2.50;;
32786;SDS011;19139;49.372;8.580;2023-03-21T10:22:02;3.90;;;2.10;;
32786;SDS011;19139;49.372;8.580;2023-03-21T10:24:30;2.53;;;2.17;;
32786;SDS011;19139;49.372;8.580;2023-03-21T10:26:59;3.57;;;2.27;;
32786;SDS011;19139;49.372;8.580;2023-03-21T10:29:29;2.93;;;1.97;;
32786;SDS011;19139;49.372;8.580;2023-03-21T10:32:08;3.17;;;2.47;;
32786;SDS011;19139;49.372;8.580;2023-03-21T10:34:39;3.53;;;2.07;;
32786;SDS011;19139;49.372;8.580;2023-03-21T10:37:16;3.43;;;2.10;;
32786;SDS011;19139;49.372;8.580;2023-03-21T10:39:44;3.17;;;2.40;;
32786;SDS011;19139;49.372;8.580;2023-03-21T10:42:24;3.67;;;2.40;;
32786;SDS011;19139;49.372;8.580;2023-03-21T10:44:56;2.77;;;2.30;;
32786;SDS011;19139;49.372;8.580;2023-03-21T10:47:24;1.87;;;1.57;;
32786;SDS011;19139;49.372;8.580;2023-03-21T10:50:02;2.93;;;2.20;;
32786;SDS011;19139;49.372;8.580;2023-03-21T10:52:34;2.37;;;2.03;;
32786;SDS011;19139;49.372;8.580;2023-03-21T10:55:04;2.53;;;2.20;;
32786;SDS011;19139;49.372;8.580;2023-03-21T10:57:45;2.90;;;2.30;;
32786;SDS011;19139;49.372;8.580;2023-03-21T11:00:16;2.70;;;2.37;;
32786;SDS011;19139;49.372;8.580;2023-03-21T11:02:47;2.60;;;2.20;;
32786;SDS011;19139;49.372;8.580;2023-03-21T11:07:46;3.67;;;2.20;;
32786;SDS011;19139;49.372;8.580;2023-03-21T11:10:25;2.20;;;1.90;;
32786;SDS011;19139;49.372;8.580;2023-03-21T11:12:55;2.57;;;2.37;;
32786;SDS011;19139;49.372;8.580;2023-03-21T11:15:51;2.50;;;2.30;;
32786;SDS011;19139;49.372;8.580;2023-03-21T11:18:24;2.57;;;2.10;;
32786;SDS011;19139;49.372;8.580;2023-03-21T11:20:53;2.27;;;1.93;;
32786;SDS011;19139;49.372;8.580;2023-03-21T11:23:25;2.10;;;1.90;;
32786;SDS011;19139;49.372;8.580;2023-03-21T11:25:54;2.83;;;2.10;;
32786;SDS011;19139;49.372;8.580;2023-03-21T11:28:24;1.90;;;1.80;;
32786;SDS011;19139;49.372;8.580;2023-03-21T11:30:59;2.07;;;1.77;;
32786;SDS011;19139;49.372;8.580;2023-03-21T11:33:32;2.10;;;1.87;;
32786;SDS011;19139;49.372;8.580;2023-03-21T11:38:50;2.63;;;2.00;;
32786;SDS011;19139;49.372;8.580;2023-03-21T11:41:28;3.70;;;1.80;;
32786;SDS011;19139;49.372;8.580;2023-03-21T11:43:59;2.83;;;2.13;;
32786;SDS011;19139;49.372;8.580;2023-03-21T11:46:28;3.40;;;2.70;;
32786;SDS011;19139;49.372;8.580;2023-03-21T11:48:57;2.27;;;2.07;;
32786;SDS011;19139;49.372;8.580;2023-03-21T11:54:18;2.90;;;1.90;;
32786;SDS011;19139;49.372;8.580;2023-03-21T11:56:52;3.67;;;1.80;;
32786;SDS011;19139;49.372;8.580;2023-03-21T12:05:16;3.43;;;1.90;;
32786;SDS011;19139;49.372;8.580;2023-03-21T12:10:32;2.50;;;2.23;;
32786;SDS011;19139;49.372;8.580;2023-03-21T12:13:11;2.00;;;1.80;;
32786;SDS011;19139;49.372;8.580;2023-03-21T12:16:18;2.20;;;2.00;;
32786;SDS011;19139;49.372;8.580;2023-03-21T12:18:58;3.17;;;1.67;;
32786;SDS011;19139;49.372;8.580;2023-03-21T12:26:55;2.67;;;1.90;;
32786;SDS011;19139;49.372;8.580;2023-03-21T12:35:26;2.33;;;2.07;;
32786;SDS011;19139;49.372;8.580;2023-03-21T12:41:08;2.07;;;1.90;;
32786;SDS011;19139;49.372;8.580;2023-03-21T12:43:47;2.10;;;1.90;;
32786;SDS011;19139;49.372;8.580;2023-03-21T12:49:32;2.97;;;2.13;;
32786;SDS011;19139;49.372;8.580;2023-03-21T12:52:05;5.00;;;2.13;;
32786;SDS011;19139;49.372;8.580;2023-03-21T12:54:38;6.87;;;1.97;;
32786;SDS011;19139;49.372;8.580;2023-03-21T12:57:11;3.43;;;2.10;;
32786;SDS011;19139;49.372;8.580;2023-03-21T12:59:45;3.23;;;1.60;;
32786;SDS011;19139;49.372;8.580;2023-03-21T13:05:33;3.10;;;2.20;;
32786;SDS011;19139;49.372;8.580;2023-03-21T13:08:10;3.30;;;2.00;;
32786;SDS011;19139;49.372;8.580;2023-03-21T13:10:43;2.70;;;2.03;;
32786;SDS011;19139;49.372;8.580;2023-03-21T13:13:13;3.90;;;2.03;;
32786;SDS011;19139;49.372;8.580;2023-03-21T13:15:52;4.40;;;1.90;;
32786;SDS011;19139;49.372;8.580;2023-03-21T13:21:19;3.23;;;2.53;;
32786;SDS011;19139;49.372;8.580;2023-03-21T13:23:57;4.43;;;2.10;;
32786;SDS011;19139;49.372;8.580;2023-03-21T13:26:44;2.43;;;1.80;;
32786;SDS011;19139;49.372;8.580;2023-03-21T13:31:47;4.63;;;2.00;;
32786;SDS011;19139;49.372;8.580;2023-03-21T13:34:24;3.63;;;1.97;;
32786;SDS011;19139;49.372;8.580;2023-03-21T13:36:52;5.63;;;2.33;;
32786;SDS011;19139;49.372;8.580;2023-03-21T13:39:23;3.23;;;1.63;;
32786;SDS011;19139;49.372;8.580;2023-03-21T13:41:53;3.00;;;2.00;;
32786;SDS011;19139;49.372;8.580;2023-03-21T13:47:00;4.20;;;1.90;;
32786;SDS011;19139;49.372;8.580;2023-03-21T13:49:33;3.63;;;2.37;;
32786;SDS011;19139;49.372;8.580;2023-03-21T13:52:23;2.20;;;1.87;;
32786;SDS011;19139;49.372;8.580;2023-03-21T13:54:53;3.83;;;1.97;;
32786;SDS011;19139;49.372;8.580;2023-03-21T14:03:00;2.47;;;2.00;;
32786;SDS011;19139;49.372;8.580;2023-03-21T14:05:32;6.67;;;2.57;;
32786;SDS011;19139;49.372;8.580;2023-03-21T14:08:00;3.43;;;1.87;;
32786;SDS011;19139;49.372;8.580;2023-03-21T14:10:43;3.10;;;1.73;;
32786;SDS011;19139;49.372;8.580;2023-03-21T14:13:14;4.20;;;1.87;;
32786;SDS011;19139;49.372;8.580;2023-03-21T14:15:44;2.67;;;1.50;;
32786;SDS011;19139;49.372;8.580;2023-03-21T14:18:22;5.10;;;1.67;;
32786;SDS011;19139;49.372;8.580;2023-03-21T14:21:20;1.70;;;1.43;;
32786;SDS011;19139;49.372;8.580;2023-03-21T14:24:01;4.77;;;2.00;;
32786;SDS011;19139;49.372;8.580;2023-03-21T14:26:34;3.10;;;2.80;;
32786;SDS011;19139;49.372;8.580;2023-03-21T14:29:03;2.63;;;1.90;;
32786;SDS011;19139;49.372;8.580;2023-03-21T14:31:44;2.93;;;1.97;;
32786;SDS011;19139;49.372;8.580;2023-03-21T14:34:13;2.97;;;1.87;;
32786;SDS011;19139;49.372;8.580;2023-03-21T14:36:42;3.33;;;1.70;;
32786;SDS011;19139;49.372;8.580;2023-03-21T14:39:23;3.77;;;1.90;;
32786;SDS011;19139;49.372;8.580;2023-03-21T14:42:00;4.23;;;1.97;;
32786;SDS011;19139;49.372;8.580;2023-03-21T14:44:34;4.87;;;1.80;;
32786;SDS011;19139;49.372;8.580;2023-03-21T14:47:20;3.33;;;2.03;;
32786;SDS011;19139;49.372;8.580;2023-03-21T14:49:49;2.57;;;1.80;;
32786;SDS011;19139;49.372;8.580;2023-03-21T14:52:19;2.83;;;1.57;;
32786;SDS011;19139;49.372;8.580;2023-03-21T14:54:57;3.60;;;1.83;;
32786;SDS011;19139;49.372;8.580;2023-03-21T14:57:27;3.83;;;1.97;;
32786;SDS011;19139;49.372;8.580;2023-03-21T14:59:57;2.50;;;1.70;;
32786;SDS011;19139;49.372;8.580;2023-03-21T15:02:29;2.33;;;1.67;;
32786;SDS011;19139;49.372;8.580;2023-03-21T15:05:09;2.90;;;1.90;;
32786;SDS011;19139;49.372;8.580;2023-03-21T15:08:06;2.93;;;1.70;;
32786;SDS011;19139;49.372;8.580;2023-03-21T15:10:40;2.53;;;1.60;;
32786;SDS011;19139;49.372;8.580;2023-03-21T15:13:12;6.17;;;1.93;;
32786;SDS011;19139;49.372;8.580;2023-03-21T15:15:39;3.20;;;1.60;;
32786;SDS011;19139;49.372;8.580;2023-03-21T15:18:07;1.97;;;1.47;;
32786;SDS011;19139;49.372;8.580;2023-03-21T15:20:39;2.83;;;1.80;;
32786;SDS011;19139;49.372;8.580;2023-03-21T15:23:10;5.07;;;1.90;;
32786;SDS011;19139;49.372;8.580;2023-03-21T15:25:41;3.50;;;2.07;;
32786;SDS011;19139;49.372;8.580;2023-03-21T15:28:10;3.87;;;2.07;;
32786;SDS011;19139;49.372;8.580;2023-03-21T15:30:39;4.20;;;1.77;;
32786;SDS011;19139;49.372;8.580;2023-03-21T15:33:14;3.00;;;1.63;;
32786;SDS011;19139;49.372;8.580;2023-03-21T15:35:43;4.03;;;1.80;;
32786;SDS011;19139;49.372;8.580;2023-03-21T15:38:22;4.90;;;2.07;;
32786;SDS011;19139;49.372;8.580;2023-03-21T15:41:15;2.93;;;1.60;;
32786;SDS011;19139;49.372;8.580;2023-03-21T15:46:40;2.23;;;1.40;;
32786;SDS011;19139;49.372;8.580;2023-03-21T15:51:40;3.17;;;1.87;;
32786;SDS011;19139;49.372;8.580;2023-03-21T15:54:29;2.30;;;1.73;;
32786;SDS011;19139;49.372;8.580;2023-03-21T15:57:03;2.40;;;1.77;;
32786;SDS011;19139;49.372;8.580;2023-03-21T15:59:41;2.97;;;1.87;;
32786;SDS011;19139;49.372;8.580;2023-03-21T16:02:21;3.03;;;1.63;;
32786;SDS011;19139;49.372;8.580;2023-03-21T16:05:00;2.93;;;2.10;;
32786;SDS011;19139;49.372;8.580;2023-03-21T16:07:28;2.60;;;2.17;;
32786;SDS011;19139;49.372;8.580;2023-03-21T16:10:00;4.30;;;1.67;;
32786;SDS011;19139;49.372;8.580;2023-03-21T16:12:29;2.23;;;1.43;;
32786;SDS011;19139;49.372;8.580;2023-03-21T16:14:56;2.60;;;1.77;;
32786;SDS011;19139;49.372;8.580;2023-03-21T16:17:27;3.27;;;1.90;;
32786;SDS011;19139;49.372;8.580;2023-03-21T16:20:26;3.97;;;2.47;;
32786;SDS011;19139;49.372;8.580;2023-03-21T16:22:53;1.93;;;1.60;;
32786;SDS011;19139;49.372;8.580;2023-03-21T16:25:20;4.03;;;1.80;;
32786;SDS011;19139;49.372;8.580;2023-03-21T16:27:47;2.20;;;1.70;;
32786;SDS011;19139;49.372;8.580;2023-03-21T16:30:15;2.63;;;1.60;;
32786;SDS011;19139;49.372;8.580;2023-03-21T16:32:44;2.40;;;1.50;;
32786;SDS011;19139;49.372;8.580;2023-03-21T16:35:11;3.27;;;2.43;;
32786;SDS011;19139;49.372;8.580;2023-03-21T16:37:38;2.93;;;1.90;;
32786;SDS011;19139;49.372;8.580;2023-03-21T16:40:15;3.77;;;1.50;;